Time;durP1;ratioP1;P1;durP2;ratioP2;P2;SDS_P1;SDS_P2;PMS_P1;PMS_P2;Temp;Humidity;BMP_temperature;BMP_pressure;BME280_temperature;BME280_humidity;BME280_pressure;Samples;Min_cycle;Max_cycle;Signal;HPM_P1;HPM_P2
2022/03/15 00:00:40;;;;;;;;;;;7.30;99.90;;;;;;5101693;28;19946;-69
2022/03/15 00:03:07;;;;;;;;;;;7.30;99.90;;;;;;5102485;28;19946;-70
2022/03/15 00:05:34;;;;;;;;;;;7.30;99.90;;;;;;5102809;28;20342;-68
2022/03/15 00:08:00;;;;;;;;;;;7.40;99.90;;;;;;5106886;28;19924;-69
2022/03/15 00:10:27;;;;;;;;;;;7.50;99.90;;;;;;5112467;28;19982;-69
2022/03/15 00:12:56;;;;;;;;;;;7.60;99.90;;;;;;5110001;28;19930;-69
2022/03/15 00:15:25;;;;;;;;;;;7.70;99.90;;;;;;5101908;28;19958;-69
2022/03/15 00:17:52;;;;;;;;;;;7.50;99.90;;;;;;5100149;28;19924;-68
2022/03/15 00:20:21;;;;;;;;;;;7.30;99.90;;;;;;5099649;28;19924;-69
2022/03/15 00:22:48;;;;;;;;;;;7.20;99.90;;;;;;5099956;28;19924;-69
2022/03/15 00:25:16;;;;;;;;;;;7.20;99.90;;;;;;5095605;28;19981;-69
2022/03/15 00:27:43;;;;;;;;;;;7.20;99.90;;;;;;5111851;28;19928;-69
2022/03/15 00:30:11;;;;;;;;;;;7.10;99.90;;;;;;5112289;28;19923;-69
2022/03/15 00:32:39;;;;;;;;;;;7.10;99.90;;;;;;5101008;28;21035;-68
2022/03/15 00:35:07;;;;;;;;;;;7.10;99.90;;;;;;5098255;28;20442;-69
2022/03/15 00:37:35;;;;;;;;;;;7.20;99.90;;;;;;5104108;28;19924;-69
2022/03/15 00:40:01;;;;;;;;;;;7.10;99.90;;;;;;5109992;28;20286;-68
2022/03/15 00:42:28;;;;;;;;;;;7.20;99.90;;;;;;5100498;28;20352;-69
2022/03/15 00:44:55;;;;;;;;;;;7.20;99.90;;;;;;5094673;28;19930;-69
2022/03/15 00:47:21;;;;;;;;;;;7.10;99.90;;;;;;5100161;28;19924;-68
2022/03/15 00:49:49;;;;;;;;;;;7.00;99.90;;;;;;5096131;28;19924;-68
2022/03/15 00:52:16;;;;;;;;;;;7.00;99.90;;;;;;5106339;28;19924;-68
2022/03/15 00:54:43;;;;;;;;;;;6.90;99.90;;;;;;5113520;28;19953;-68
2022/03/15 00:57:10;;;;;;;;;;;6.90;99.90;;;;;;5111466;28;19924;-68
2022/03/15 00:59:37;;;;;;;;;;;6.90;99.90;;;;;;5112901;28;19924;-68
2022/03/15 01:02:04;;;;;;;;;;;6.80;99.90;;;;;;5108946;28;19932;-68
2022/03/15 01:04:31;;;;;;;;;;;6.80;99.90;;;;;;5109492;28;19942;-68
2022/03/15 01:06:59;;;;;;;;;;;6.80;99.90;;;;;;5108131;28;19963;-68
2022/03/15 01:09:25;;;;;;;;;;;6.70;99.90;;;;;;5107982;28;19924;-68
2022/03/15 01:11:52;;;;;;;;;;;6.80;99.90;;;;;;5107151;27;20009;-68
2022/03/15 01:14:19;;;;;;;;;;;6.80;99.90;;;;;;5111370;28;19924;-68
2022/03/15 01:16:46;;;;;;;;;;;6.80;99.90;;;;;;5103124;28;19924;-68
2022/03/15 01:19:13;;;;;;;;;;;6.80;99.90;;;;;;5104717;28;19927;-68
2022/03/15 01:21:40;;;;;;;;;;;6.80;99.90;;;;;;5108814;28;19930;-68
2022/03/15 01:24:08;;;;;;;;;;;6.80;99.90;;;;;;5111550;28;19923;-68
2022/03/15 01:26:37;;;;;;;;;;;6.70;99.90;;;;;;5110346;28;20009;-68
2022/03/15 01:29:04;;;;;;;;;;;6.70;99.90;;;;;;5093757;28;20402;-68
2022/03/15 01:31:30;;;;;;;;;;;6.60;99.90;;;;;;5102843;28;19930;-68
2022/03/15 01:33:57;;;;;;;;;;;6.60;99.90;;;;;;5100489;28;20007;-68
2022/03/15 01:36:24;;;;;;;;;;;6.70;99.90;;;;;;5103498;28;19924;-68
2022/03/15 01:38:52;;;;;;;;;;;6.70;99.90;;;;;;5100957;28;20391;-69
2022/03/15 01:41:21;;;;;;;;;;;6.80;99.90;;;;;;5104963;28;19931;-68
2022/03/15 01:43:47;;;;;;;;;;;6.70;99.90;;;;;;5104053;28;19931;-69
2022/03/15 01:46:14;;;;;;;;;;;6.70;99.90;;;;;;5104327;28;19930;-69
2022/03/15 01:48:41;;;;;;;;;;;6.60;99.90;;;;;;5093539;28;20018;-69
2022/03/15 01:51:08;;;;;;;;;;;6.80;99.90;;;;;;5105893;28;19998;-69
2022/03/15 01:53:35;;;;;;;;;;;6.70;99.90;;;;;;5110843;28;19959;-68
2022/03/15 01:56:02;;;;;;;;;;;6.70;99.90;;;;;;5110076;28;20376;-68
2022/03/15 01:58:30;;;;;;;;;;;6.80;99.90;;;;;;5102617;28;19931;-69
2022/03/15 02:00:56;;;;;;;;;;;6.80;99.90;;;;;;5097283;28;19931;-68
2022/03/15 02:03:23;;;;;;;;;;;6.80;99.90;;;;;;5107212;28;22172;-69
2022/03/15 02:05:50;;;;;;;;;;;6.70;99.90;;;;;;5102676;28;20011;-69
2022/03/15 02:08:17;;;;;;;;;;;6.70;99.90;;;;;;5097955;27;19939;-68
2022/03/15 02:10:44;;;;;;;;;;;6.80;99.90;;;;;;5095873;28;19924;-68
2022/03/15 02:13:11;;;;;;;;;;;6.90;99.90;;;;;;5101052;28;20302;-68
2022/03/15 02:15:39;;;;;;;;;;;6.90;99.90;;;;;;5108879;28;19928;-68
2022/03/15 02:18:06;;;;;;;;;;;7.00;99.90;;;;;;5102029;28;20410;-68
2022/03/15 02:20:35;;;;;;;;;;;7.00;99.90;;;;;;5104222;28;19928;-68
2022/03/15 02:23:01;;;;;;;;;;;7.00;99.90;;;;;;5100320;28;19931;-68
2022/03/15 02:25:28;;;;;;;;;;;7.00;99.90;;;;;;5097463;28;20011;-68
2022/03/15 02:27:55;;;;;;;;;;;7.00;99.90;;;;;;5099177;28;19923;-68
2022/03/15 02:30:22;;;;;;;;;;;6.90;99.90;;;;;;5104225;28;20456;-69
2022/03/15 02:32:48;;;;;;;;;;;6.90;99.90;;;;;;5109894;28;19936;-68
2022/03/15 02:35:15;;;;;;;;;;;6.90;99.90;;;;;;5106978;28;20068;-68
2022/03/15 02:37:43;;;;;;;;;;;6.80;99.90;;;;;;5108119;28;19928;-68
2022/03/15 02:40:10;;;;;;;;;;;6.70;99.90;;;;;;5111522;28;20382;-68
2022/03/15 02:42:37;;;;;;;;;;;6.60;99.90;;;;;;5104127;28;19931;-68
2022/03/15 02:45:04;;;;;;;;;;;6.50;99.90;;;;;;5110375;28;19924;-68
2022/03/15 02:47:31;;;;;;;;;;;6.40;99.90;;;;;;5106862;28;20010;-68
2022/03/15 02:49:58;;;;;;;;;;;6.40;99.90;;;;;;5106356;28;20018;-68
2022/03/15 02:52:25;;;;;;;;;;;6.40;99.90;;;;;;5102460;28;19928;-69
2022/03/15 02:54:53;;;;;;;;;;;6.40;99.90;;;;;;5112770;28;19969;-68
2022/03/15 02:57:23;;;;;;;;;;;6.40;99.90;;;;;;5109380;28;19924;-69
2022/03/15 02:59:49;;;;;;;;;;;6.40;99.90;;;;;;5111679;28;19924;-68
2022/03/15 03:02:17;;;;;;;;;;;6.30;99.90;;;;;;5101852;28;19924;-68
2022/03/15 03:04:43;;;;;;;;;;;6.50;99.90;;;;;;5109762;28;19992;-69
2022/03/15 03:07:11;;;;;;;;;;;6.30;99.90;;;;;;5110812;28;19924;-68
2022/03/15 03:09:38;;;;;;;;;;;6.40;99.90;;;;;;5111672;28;19969;-69
2022/03/15 03:12:06;;;;;;;;;;;6.40;99.90;;;;;;5100655;28;19932;-69
2022/03/15 03:14:34;;;;;;;;;;;6.40;99.90;;;;;;5094561;28;19924;-68
2022/03/15 03:17:01;;;;;;;;;;;6.50;99.90;;;;;;5097127;28;20069;-68
2022/03/15 03:19:27;;;;;;;;;;;6.50;99.90;;;;;;5109175;28;19924;-69
2022/03/15 03:21:54;;;;;;;;;;;6.50;99.90;;;;;;5108654;28;19924;-68
2022/03/15 03:24:24;;;;;;;;;;;6.60;99.90;;;;;;5109009;28;20022;-68
2022/03/15 03:26:51;;;;;;;;;;;6.60;99.90;;;;;;5098604;28;19931;-68
2022/03/15 03:29:19;;;;;;;;;;;6.60;99.90;;;;;;5094915;28;19930;-68
2022/03/15 03:31:46;;;;;;;;;;;6.60;99.90;;;;;;5091981;28;19977;-68
2022/03/15 03:34:13;;;;;;;;;;;6.60;99.90;;;;;;5102028;28;19931;-68
2022/03/15 03:36:40;;;;;;;;;;;6.60;99.90;;;;;;5101484;28;19924;-68
2022/03/15 03:39:07;;;;;;;;;;;6.60;99.90;;;;;;5098597;28;19971;-69
2022/03/15 03:41:34;;;;;;;;;;;6.60;99.90;;;;;;5110560;28;19974;-68
2022/03/15 03:44:00;;;;;;;;;;;6.50;99.90;;;;;;5101944;28;19931;-68
2022/03/15 03:46:29;;;;;;;;;;;6.60;99.90;;;;;;5113446;28;20010;-68
2022/03/15 03:48:56;;;;;;;;;;;6.60;99.90;;;;;;5104533;28;19982;-68
2022/03/15 03:51:23;;;;;;;;;;;6.60;99.90;;;;;;5099425;28;19924;-69
2022/03/15 03:53:49;;;;;;;;;;;6.50;99.90;;;;;;5114656;28;20313;-69
2022/03/15 03:56:16;;;;;;;;;;;6.50;99.90;;;;;;5107964;28;20024;-68
2022/03/15 03:58:43;;;;;;;;;;;6.50;99.90;;;;;;5095476;28;19931;-68
2022/03/15 04:01:09;;;;;;;;;;;6.50;99.90;;;;;;5105871;28;19924;-68
2022/03/15 04:03:37;;;;;;;;;;;6.50;99.90;;;;;;5107755;28;19924;-67
2022/03/15 04:06:05;;;;;;;;;;;6.40;99.90;;;;;;5103307;28;19923;-67
2022/03/15 04:08:32;;;;;;;;;;;6.40;99.90;;;;;;5107534;28;19924;-68
2022/03/15 04:10:59;;;;;;;;;;;6.40;99.90;;;;;;5098192;28;19969;-68
2022/03/15 04:13:26;;;;;;;;;;;6.40;99.90;;;;;;5107917;28;20023;-68
2022/03/15 04:15:53;;;;;;;;;;;6.40;99.90;;;;;;5111458;28;20019;-68
2022/03/15 04:18:20;;;;;;;;;;;6.50;99.90;;;;;;5110566;28;20598;-68
2022/03/15 04:20:48;;;;;;;;;;;6.40;99.90;;;;;;5097767;28;19928;-68
2022/03/15 04:23:15;;;;;;;;;;;6.40;99.90;;;;;;5110293;28;20022;-68
2022/03/15 04:25:42;;;;;;;;;;;6.40;99.90;;;;;;5110744;28;20442;-68
2022/03/15 04:28:09;;;;;;;;;;;6.50;99.90;;;;;;5107238;28;19928;-68
2022/03/15 04:30:36;;;;;;;;;;;6.50;99.90;;;;;;5096050;28;19932;-68
2022/03/15 04:33:02;;;;;;;;;;;6.50;99.90;;;;;;5097367;28;20313;-68
2022/03/15 04:35:29;;;;;;;;;;;6.50;99.90;;;;;;5106649;28;20393;-68
2022/03/15 04:37:57;;;;;;;;;;;6.50;99.90;;;;;;5093812;28;20023;-68
2022/03/15 04:40:24;;;;;;;;;;;6.50;99.90;;;;;;5105020;28;19930;-68
2022/03/15 04:42:52;;;;;;;;;;;6.60;99.90;;;;;;5107018;28;20298;-69
2022/03/15 04:45:19;;;;;;;;;;;6.50;99.90;;;;;;5107627;28;20274;-69
2022/03/15 04:47:46;;;;;;;;;;;6.50;99.90;;;;;;5107837;28;19927;-69
2022/03/15 04:50:13;;;;;;;;;;;6.60;99.90;;;;;;5103307;28;19924;-69
2022/03/15 04:52:40;;;;;;;;;;;6.60;99.90;;;;;;5102760;28;20269;-68
2022/03/15 04:55:08;;;;;;;;;;;6.60;99.90;;;;;;5113193;28;20031;-68
2022/03/15 04:57:35;;;;;;;;;;;6.50;99.90;;;;;;5106320;28;19924;-68
2022/03/15 05:00:02;;;;;;;;;;;6.60;99.90;;;;;;5112477;28;20400;-69
2022/03/15 05:02:29;;;;;;;;;;;6.50;99.90;;;;;;5106905;28;19931;-69
2022/03/15 05:04:56;;;;;;;;;;;6.50;99.90;;;;;;5110355;28;19924;-72
2022/03/15 05:07:23;;;;;;;;;;;6.50;99.90;;;;;;5104696;28;20019;-69
2022/03/15 05:12:35;;;;;;;;;;;6.50;99.90;;;;;;5104067;28;20028;-68
2022/03/15 05:15:02;;;;;;;;;;;5.60;99.90;;;;;;5107056;28;20276;-69
2022/03/15 05:17:28;;;;;;;;;;;6.50;99.90;;;;;;5106888;28;19978;-70
2022/03/15 05:19:55;;;;;;;;;;;6.40;99.90;;;;;;5112171;28;19923;-68
2022/03/15 05:22:22;;;;;;;;;;;6.40;99.90;;;;;;5103416;27;19931;-67
2022/03/15 05:24:48;;;;;;;;;;;6.40;99.90;;;;;;5093243;28;19924;-69
2022/03/15 05:27:16;;;;;;;;;;;6.50;99.90;;;;;;5099844;28;19930;-67
2022/03/15 05:29:44;;;;;;;;;;;6.40;99.90;;;;;;5102077;28;19923;-67
2022/03/15 05:32:11;;;;;;;;;;;6.40;99.90;;;;;;5104617;28;19931;-66
2022/03/15 05:34:39;;;;;;;;;;;6.40;99.90;;;;;;5102910;28;19931;-67
2022/03/15 05:37:07;;;;;;;;;;;6.40;99.90;;;;;;5109514;28;19985;-67
2022/03/15 05:39:34;;;;;;;;;;;6.40;99.90;;;;;;5101314;28;19938;-67
2022/03/15 05:42:01;;;;;;;;;;;6.40;99.90;;;;;;5108363;28;19924;-68
2022/03/15 05:44:28;;;;;;;;;;;6.50;99.90;;;;;;5096714;28;20290;-67
2022/03/15 05:46:56;;;;;;;;;;;6.40;99.90;;;;;;5093822;28;20343;-67
2022/03/15 05:49:23;;;;;;;;;;;6.40;99.90;;;;;;5101664;28;19946;-69
2022/03/15 05:51:49;;;;;;;;;;;6.40;99.90;;;;;;5098284;28;20018;-68
2022/03/15 05:54:16;;;;;;;;;;;6.30;99.90;;;;;;5104002;28;19966;-68
2022/03/15 05:56:44;;;;;;;;;;;6.40;99.90;;;;;;5107647;28;19924;-68
2022/03/15 05:59:11;;;;;;;;;;;6.30;99.90;;;;;;5106609;28;19924;-68
2022/03/15 06:01:41;;;;;;;;;;;6.50;99.90;;;;;;5099568;28;20382;-71
2022/03/15 06:04:10;;;;;;;;;;;6.40;99.90;;;;;;5099998;28;19924;-69
2022/03/15 06:06:37;;;;;;;;;;;6.30;99.90;;;;;;5099501;28;19923;-68
2022/03/15 06:09:03;;;;;;;;;;;6.30;99.90;;;;;;5092364;28;19970;-69
2022/03/15 06:11:34;;;;;;;;;;;6.30;99.90;;;;;;5101810;28;19924;-69
2022/03/15 06:14:01;;;;;;;;;;;6.40;99.90;;;;;;5098611;28;19956;-69
2022/03/15 06:16:30;;;;;;;;;;;6.30;99.90;;;;;;5094304;28;19925;-69
2022/03/15 06:19:00;;;;;;;;;;;6.30;99.90;;;;;;5110375;28;19927;-69
2022/03/15 06:21:28;;;;;;;;;;;6.20;99.90;;;;;;5104142;28;20417;-68
2022/03/15 06:23:54;;;;;;;;;;;6.30;99.90;;;;;;5095951;28;20030;-67
2022/03/15 06:26:21;;;;;;;;;;;6.40;99.90;;;;;;5106993;28;19924;-68
2022/03/15 06:28:48;;;;;;;;;;;6.40;99.90;;;;;;5098470;28;20010;-68
2022/03/15 06:31:15;;;;;;;;;;;6.50;99.90;;;;;;5108800;28;20018;-67
2022/03/15 06:33:42;;;;;;;;;;;6.40;99.90;;;;;;5088648;28;19942;-68
2022/03/15 06:36:11;;;;;;;;;;;6.50;99.90;;;;;;5089116;28;19928;-68
2022/03/15 06:38:41;;;;;;;;;;;6.50;99.90;;;;;;5091877;28;19930;-68
2022/03/15 06:41:10;;;;;;;;;;;6.50;99.90;;;;;;5093014;28;19943;-69
2022/03/15 06:43:38;;;;;;;;;;;6.50;99.90;;;;;;5092179;28;19931;-68
2022/03/15 06:46:05;;;;;;;;;;;6.60;99.90;;;;;;5091009;28;19939;-68
2022/03/15 06:48:31;;;;;;;;;;;6.50;99.90;;;;;;5091862;28;20004;-68
2022/03/15 06:50:58;;;;;;;;;;;6.50;99.90;;;;;;5091433;28;20400;-68
2022/03/15 06:53:25;;;;;;;;;;;6.50;99.90;;;;;;5089460;28;20688;-68
2022/03/15 06:55:53;;;;;;;;;;;6.50;99.90;;;;;;5091336;28;20416;-69
2022/03/15 06:58:20;;;;;;;;;;;6.60;99.90;;;;;;5090880;28;19934;-68
2022/03/15 07:00:47;;;;;;;;;;;6.60;99.90;;;;;;5093830;28;19932;-68
2022/03/15 07:03:14;;;;;;;;;;;6.60;99.90;;;;;;5093666;28;22715;-67
2022/03/15 07:05:41;;;;;;;;;;;6.70;99.90;;;;;;5094696;28;19927;-67
2022/03/15 07:08:08;;;;;;;;;;;6.70;99.90;;;;;;5092634;28;20039;-68
2022/03/15 07:10:35;;;;;;;;;;;6.70;99.90;;;;;;5092538;28;19928;-68
2022/03/15 07:13:03;;;;;;;;;;;6.70;99.90;;;;;;5100128;28;19924;-68
2022/03/15 07:15:30;;;;;;;;;;;6.80;99.90;;;;;;5110688;28;19923;-68
2022/03/15 07:17:57;;;;;;;;;;;6.80;99.90;;;;;;5107167;28;19932;-68
2022/03/15 07:20:24;;;;;;;;;;;6.90;99.90;;;;;;5097654;28;19924;-68
2022/03/15 07:22:51;;;;;;;;;;;6.90;99.90;;;;;;5105175;28;19924;-68
2022/03/15 07:25:20;;;;;;;;;;;6.90;99.90;;;;;;5094777;28;19924;-68
2022/03/15 07:27:46;;;;;;;;;;;6.90;99.90;;;;;;5104441;28;19936;-68
2022/03/15 07:30:15;;;;;;;;;;;6.80;99.90;;;;;;5098489;28;19931;-68
2022/03/15 07:32:41;;;;;;;;;;;6.90;99.90;;;;;;5101955;28;20092;-69
2022/03/15 07:35:09;;;;;;;;;;;6.90;99.90;;;;;;5108630;28;19924;-68
2022/03/15 07:37:36;;;;;;;;;;;6.90;99.90;;;;;;5096917;28;19924;-67
2022/03/15 07:40:03;;;;;;;;;;;7.00;99.90;;;;;;5103324;28;19924;-68
2022/03/15 07:42:30;;;;;;;;;;;7.00;99.90;;;;;;5106173;28;19924;-68
2022/03/15 07:44:57;;;;;;;;;;;7.10;99.90;;;;;;5099226;28;19928;-67
2022/03/15 07:47:25;;;;;;;;;;;7.10;99.90;;;;;;5099506;27;19924;-68
2022/03/15 07:49:53;;;;;;;;;;;7.10;99.90;;;;;;5105105;28;19924;-67
2022/03/15 07:52:19;;;;;;;;;;;7.20;99.90;;;;;;5098096;28;19970;-66
2022/03/15 07:54:46;;;;;;;;;;;7.10;99.90;;;;;;5107131;28;19989;-67
2022/03/15 07:57:13;;;;;;;;;;;7.20;99.90;;;;;;5100889;28;20054;-67
2022/03/15 07:59:39;;;;;;;;;;;7.20;99.90;;;;;;5095344;28;19928;-67
2022/03/15 08:02:07;;;;;;;;;;;7.30;99.90;;;;;;5097341;28;19924;-66
2022/03/15 08:04:35;;;;;;;;;;;7.30;99.90;;;;;;5105406;28;20456;-67
2022/03/15 08:07:02;;;;;;;;;;;7.30;99.90;;;;;;5096679;28;19928;-67
2022/03/15 08:09:28;;;;;;;;;;;7.30;99.90;;;;;;5102139;28;20448;-67
2022/03/15 08:11:55;;;;;;;;;;;7.30;99.90;;;;;;5094919;28;20006;-67
2022/03/15 08:14:22;;;;;;;;;;;7.30;99.90;;;;;;5099436;27;19932;-67
2022/03/15 08:16:48;;;;;;;;;;;7.40;99.90;;;;;;5101289;27;19923;-67
2022/03/15 08:19:15;;;;;;;;;;;7.30;99.90;;;;;;5103629;27;20329;-68
2022/03/15 08:21:43;;;;;;;;;;;7.40;99.90;;;;;;5102842;28;20014;-67
2022/03/15 08:24:11;;;;;;;;;;;7.50;99.90;;;;;;5097358;28;19932;-67
2022/03/15 08:26:38;;;;;;;;;;;7.50;99.90;;;;;;5093443;28;20308;-67
2022/03/15 08:29:05;;;;;;;;;;;7.50;99.90;;;;;;5096422;28;19935;-67
2022/03/15 08:31:32;;;;;;;;;;;7.50;99.90;;;;;;5095949;28;19929;-67
2022/03/15 08:33:58;;;;;;;;;;;7.50;99.90;;;;;;5099169;28;20040;-67
2022/03/15 08:36:25;;;;;;;;;;;7.60;99.90;;;;;;5097608;28;19950;-67
2022/03/15 08:38:53;;;;;;;;;;;7.60;99.90;;;;;;5096802;28;20298;-67
2022/03/15 08:41:19;;;;;;;;;;;7.70;99.90;;;;;;5099767;28;20289;-67
2022/03/15 08:43:46;;;;;;;;;;;7.70;99.90;;;;;;5098557;28;20034;-67
2022/03/15 08:46:13;;;;;;;;;;;7.70;99.90;;;;;;5091030;28;19969;-67
2022/03/15 08:48:40;;;;;;;;;;;7.60;99.90;;;;;;5095670;28;20291;-68
2022/03/15 08:51:07;;;;;;;;;;;7.70;99.90;;;;;;5094419;28;19967;-67
2022/03/15 08:53:33;;;;;;;;;;;7.60;99.90;;;;;;5101002;28;19924;-67
2022/03/15 08:56:03;;;;;;;;;;;7.70;99.90;;;;;;5092819;28;19924;-67
2022/03/15 08:58:30;;;;;;;;;;;7.70;99.90;;;;;;5095722;28;19932;-68
2022/03/15 09:00:57;;;;;;;;;;;7.80;99.90;;;;;;5093551;28;20229;-67
2022/03/15 09:03:24;;;;;;;;;;;7.80;99.90;;;;;;5093806;28;20015;-67
2022/03/15 09:05:50;;;;;;;;;;;7.80;99.90;;;;;;5102770;28;19924;-68
2022/03/15 09:08:17;;;;;;;;;;;7.90;99.90;;;;;;5100559;28;19935;-68
2022/03/15 09:10:47;;;;;;;;;;;8.00;99.90;;;;;;5102589;28;19931;-72
2022/03/15 09:13:15;;;;;;;;;;;8.00;99.90;;;;;;5098679;28;19923;-67
2022/03/15 09:15:41;;;;;;;;;;;7.90;99.90;;;;;;5095477;28;19932;-68
2022/03/15 09:18:08;;;;;;;;;;;8.10;99.90;;;;;;5097003;28;19924;-67
2022/03/15 09:20:35;;;;;;;;;;;8.10;99.90;;;;;;5098611;28;19932;-68
2022/03/15 09:23:02;;;;;;;;;;;8.10;99.90;;;;;;5094718;28;20428;-67
2022/03/15 09:25:30;;;;;;;;;;;8.20;99.90;;;;;;5095225;28;20289;-67
2022/03/15 09:27:57;;;;;;;;;;;8.10;99.90;;;;;;5096849;28;20505;-68
2022/03/15 09:30:25;;;;;;;;;;;8.20;99.90;;;;;;5100350;28;19967;-67
2022/03/15 09:32:51;;;;;;;;;;;8.10;99.90;;;;;;5088395;28;19932;-67
2022/03/15 09:35:18;;;;;;;;;;;8.20;99.90;;;;;;5093010;28;19931;-67
2022/03/15 09:37:48;;;;;;;;;;;8.20;99.90;;;;;;5093967;28;19924;-67
2022/03/15 09:40:17;;;;;;;;;;;8.20;99.90;;;;;;5091007;28;19969;-68
2022/03/15 09:42:45;;;;;;;;;;;8.30;99.90;;;;;;5102678;28;19980;-68
2022/03/15 09:45:12;;;;;;;;;;;8.40;99.90;;;;;;5108560;28;20279;-67
2022/03/15 09:47:41;;;;;;;;;;;8.40;99.90;;;;;;5096888;28;20325;-67
2022/03/15 09:50:11;;;;;;;;;;;8.40;99.90;;;;;;5102912;28;19941;-67
2022/03/15 09:52:38;;;;;;;;;;;8.40;99.90;;;;;;5102295;28;19927;-68
2022/03/15 09:55:05;;;;;;;;;;;8.50;99.90;;;;;;5105043;28;19936;-67
2022/03/15 09:57:33;;;;;;;;;;;8.60;99.90;;;;;;5098114;28;19931;-70
2022/03/15 10:00:00;;;;;;;;;;;8.70;99.90;;;;;;5096446;28;19925;-70
2022/03/15 10:02:27;;;;;;;;;;;8.60;99.90;;;;;;5095676;28;19931;-69
2022/03/15 10:04:55;;;;;;;;;;;8.70;99.90;;;;;;5110241;28;19924;-70
2022/03/15 10:07:22;;;;;;;;;;;8.80;99.90;;;;;;5095379;28;19935;-69
2022/03/15 10:09:52;;;;;;;;;;;8.80;99.90;;;;;;5104872;28;20316;-70
2022/03/15 10:12:18;;;;;;;;;;;8.90;99.90;;;;;;5108060;28;19924;-69
2022/03/15 10:14:46;;;;;;;;;;;8.90;99.90;;;;;;5095548;28;20087;-69
2022/03/15 10:17:14;;;;;;;;;;;8.90;99.90;;;;;;5097772;28;19930;-69
2022/03/15 10:19:50;;;;;;;;;;;8.90;99.90;;;;;;5097015;28;19934;-70
2022/03/15 10:22:20;;;;;;;;;;;9.10;99.90;;;;;;5100139;28;19934;-68
2022/03/15 10:24:47;;;;;;;;;;;9.10;99.90;;;;;;5100520;28;19963;-69
2022/03/15 10:27:17;;;;;;;;;;;9.10;99.90;;;;;;5094986;28;19923;-69
2022/03/15 10:29:44;;;;;;;;;;;9.20;99.90;;;;;;5090122;28;19924;-70
2022/03/15 10:32:11;;;;;;;;;;;9.30;99.90;;;;;;5096844;28;19977;-66
2022/03/15 10:34:38;;;;;;;;;;;9.40;99.90;;;;;;5095158;28;19924;-68
2022/03/15 10:37:04;;;;;;;;;;;9.40;99.90;;;;;;5099162;28;20010;-67
2022/03/15 10:39:32;;;;;;;;;;;9.60;99.90;;;;;;5091006;28;19924;-66
2022/03/15 10:42:00;;;;;;;;;;;9.50;99.90;;;;;;5093998;28;19924;-67
2022/03/15 10:44:28;;;;;;;;;;;9.60;99.90;;;;;;5099986;28;19924;-68
2022/03/15 10:46:59;;;;;;;;;;;9.70;99.90;;;;;;5095525;28;19930;-67
2022/03/15 10:49:26;;;;;;;;;;;9.80;99.90;;;;;;5096904;28;19974;-68
2022/03/15 10:51:52;;;;;;;;;;;10.00;99.90;;;;;;5101916;28;19924;-69
2022/03/15 10:54:23;;;;;;;;;;;9.90;99.90;;;;;;5099016;28;20332;-68
2022/03/15 10:56:55;;;;;;;;;;;9.90;99.90;;;;;;5101601;28;20369;-69
2022/03/15 10:59:22;;;;;;;;;;;9.80;99.90;;;;;;5102288;28;20352;-69
2022/03/15 11:01:50;;;;;;;;;;;10.00;99.90;;;;;;5107535;28;19977;-67
2022/03/15 11:04:17;;;;;;;;;;;9.90;99.90;;;;;;5104873;28;19966;-68
2022/03/15 11:06:45;;;;;;;;;;;9.80;99.90;;;;;;5108066;28;20408;-68
2022/03/15 11:09:22;;;;;;;;;;;9.80;99.90;;;;;;5105109;28;20002;-68
2022/03/15 11:11:55;;;;;;;;;;;10.10;99.90;;;;;;5102768;28;19930;-67
2022/03/15 11:14:38;;;;;;;;;;;10.10;99.90;;;;;;5106908;28;19924;-68
2022/03/15 11:17:07;;;;;;;;;;;10.10;99.90;;;;;;5102907;28;19971;-68
2022/03/15 11:19:38;;;;;;;;;;;10.10;99.90;;;;;;5100059;28;20378;-68
2022/03/15 11:22:05;;;;;;;;;;;9.90;99.90;;;;;;5109450;28;19924;-69
2022/03/15 11:24:34;;;;;;;;;;;9.80;99.90;;;;;;5100400;28;19939;-68
2022/03/15 11:27:03;;;;;;;;;;;9.90;99.90;;;;;;5100997;28;19930;-67
2022/03/15 11:29:32;;;;;;;;;;;10.00;99.90;;;;;;5103988;28;19971;-68
2022/03/15 11:31:59;;;;;;;;;;;10.10;99.90;;;;;;5094576;28;19924;-67
2022/03/15 11:34:26;;;;;;;;;;;10.20;99.90;;;;;;5097490;28;19932;-68
2022/03/15 11:36:53;;;;;;;;;;;10.30;99.90;;;;;;5098546;28;19928;-69
2022/03/15 11:39:20;;;;;;;;;;;10.20;99.90;;;;;;5101141;28;20395;-73
2022/03/15 11:41:47;;;;;;;;;;;10.20;99.90;;;;;;5102639;28;20397;-72
2022/03/15 11:44:18;;;;;;;;;;;10.30;99.90;;;;;;5102869;28;20049;-72
2022/03/15 11:46:46;;;;;;;;;;;10.40;99.90;;;;;;5095490;28;19992;-72
2022/03/15 11:49:20;;;;;;;;;;;10.40;99.90;;;;;;5108675;28;19939;-72
2022/03/15 11:51:51;;;;;;;;;;;10.60;99.90;;;;;;5096724;28;19983;-72
2022/03/15 11:54:23;;;;;;;;;;;10.80;99.90;;;;;;5098505;28;19938;-72
2022/03/15 11:56:52;;;;;;;;;;;10.70;99.90;;;;;;5103826;28;19924;-74
2022/03/15 11:59:20;;;;;;;;;;;10.70;99.90;;;;;;5109615;28;19932;-75
2022/03/15 12:01:47;;;;;;;;;;;10.90;99.90;;;;;;5100933;28;19924;-73
2022/03/15 12:04:15;;;;;;;;;;;11.00;99.90;;;;;;5113451;28;19931;-74
2022/03/15 12:06:50;;;;;;;;;;;10.80;99.90;;;;;;5109318;28;19932;-74
2022/03/15 12:09:21;;;;;;;;;;;11.00;99.90;;;;;;5112618;28;19924;-72
2022/03/15 12:11:48;;;;;;;;;;;11.10;99.90;;;;;;5110790;28;19928;-76
2022/03/15 12:14:17;;;;;;;;;;;11.00;99.90;;;;;;5107363;28;20006;-73
2022/03/15 12:16:47;;;;;;;;;;;11.00;99.90;;;;;;5109771;28;19927;-73
2022/03/15 12:19:23;;;;;;;;;;;11.10;99.90;;;;;;5109629;28;19976;-73
2022/03/15 12:21:52;;;;;;;;;;;11.40;99.90;;;;;;5104905;28;20463;-76
2022/03/15 12:24:19;;;;;;;;;;;11.80;99.30;;;;;;5098177;28;19930;-75
2022/03/15 12:26:47;;;;;;;;;;;11.50;98.50;;;;;;5097717;28;20345;-75
2022/03/15 12:29:14;;;;;;;;;;;11.90;98.90;;;;;;5102698;28;19970;-74
2022/03/15 12:31:41;;;;;;;;;;;12.30;97.70;;;;;;5101817;28;19932;-73
2022/03/15 12:34:10;;;;;;;;;;;12.40;98.10;;;;;;5092779;28;20370;-73
2022/03/15 12:36:38;;;;;;;;;;;12.80;96.30;;;;;;5097201;28;20448;-74
2022/03/15 12:39:09;;;;;;;;;;;13.00;95.30;;;;;;5104496;28;19928;-73
2022/03/15 12:41:36;;;;;;;;;;;12.90;94.90;;;;;;5098395;28;20392;-74
2022/03/15 12:44:03;;;;;;;;;;;13.10;94.90;;;;;;5108119;28;19934;-75
2022/03/15 12:46:31;;;;;;;;;;;13.20;94.10;;;;;;5096586;28;19928;-76
2022/03/15 12:49:05;;;;;;;;;;;13.00;94.00;;;;;;5099000;28;19927;-75
2022/03/15 12:51:37;;;;;;;;;;;13.10;94.20;;;;;;5095175;28;20001;-75
2022/03/15 12:54:06;;;;;;;;;;;13.10;93.80;;;;;;5092164;28;19977;-74
2022/03/15 12:56:33;;;;;;;;;;;12.80;93.90;;;;;;5096470;28;20413;-74
2022/03/15 12:58:59;;;;;;;;;;;12.40;94.00;;;;;;5097157;28;20398;-74
2022/03/15 13:01:27;;;;;;;;;;;12.50;94.20;;;;;;5097316;28;19946;-74
2022/03/15 13:03:54;;;;;;;;;;;12.60;94.10;;;;;;5100231;28;19923;-74
2022/03/15 13:06:21;;;;;;;;;;;12.60;94.90;;;;;;5094659;28;19947;-74
2022/03/15 13:08:56;;;;;;;;;;;12.70;92.90;;;;;;5101341;28;20023;-74
2022/03/15 13:11:26;;;;;;;;;;;12.60;92.80;;;;;;5099274;28;20011;-73
2022/03/15 13:13:54;;;;;;;;;;;12.50;92.80;;;;;;5099835;28;19924;-74
2022/03/15 13:16:23;;;;;;;;;;;12.30;93.60;;;;;;5094523;28;20306;-74
2022/03/15 13:18:49;;;;;;;;;;;12.30;92.90;;;;;;5095512;28;19993;-74
2022/03/15 13:21:16;;;;;;;;;;;12.50;93.10;;;;;;5096964;28;19946;-73
2022/03/15 13:23:45;;;;;;;;;;;12.70;93.10;;;;;;5102030;28;20019;-75
2022/03/15 13:26:14;;;;;;;;;;;13.10;91.40;;;;;;5096960;28;19932;-74
2022/03/15 13:28:42;;;;;;;;;;;13.50;89.80;;;;;;5107179;28;20014;-73
2022/03/15 13:31:09;;;;;;;;;;;13.80;88.10;;;;;;5108355;28;20019;-74
2022/03/15 13:33:38;;;;;;;;;;;14.00;86.80;;;;;;5104389;28;19924;-74
2022/03/15 13:36:06;;;;;;;;;;;13.60;86.50;;;;;;5103134;28;19970;-74
2022/03/15 13:38:36;;;;;;;;;;;13.50;85.90;;;;;;5094886;28;20283;-74
2022/03/15 13:41:03;;;;;;;;;;;13.70;84.70;;;;;;5095730;28;19977;-73
2022/03/15 13:43:33;;;;;;;;;;;13.70;82.10;;;;;;5104516;27;20293;-73
2022/03/15 13:46:03;;;;;;;;;;;13.00;81.20;;;;;;5099429;28;19924;-73
2022/03/15 13:48:31;;;;;;;;;;;12.90;83.00;;;;;;5100920;28;19927;-73
2022/03/15 13:50:58;;;;;;;;;;;13.40;82.50;;;;;;5099856;28;19924;-70
2022/03/15 13:53:26;;;;;;;;;;;13.80;81.10;;;;;;5102991;28;20345;-71
2022/03/15 13:55:53;;;;;;;;;;;13.50;79.40;;;;;;5096249;28;20379;-71
2022/03/15 13:58:28;;;;;;;;;;;12.90;79.00;;;;;;5108743;28;19924;-71
2022/03/15 14:01:06;;;;;;;;;;;13.20;80.00;;;;;;5096287;28;19925;-71
2022/03/15 14:03:34;;;;;;;;;;;12.90;80.80;;;;;;5091570;28;19999;-70
2022/03/15 14:06:04;;;;;;;;;;;13.20;80.60;;;;;;5106071;28;20341;-69
2022/03/15 14:08:41;;;;;;;;;;;13.50;79.60;;;;;;5089941;28;19924;-68
2022/03/15 14:11:09;;;;;;;;;;;13.60;80.00;;;;;;5103433;28;19924;-71
2022/03/15 14:13:36;;;;;;;;;;;13.50;80.20;;;;;;5110697;27;19924;-71
2022/03/15 14:16:08;;;;;;;;;;;13.50;80.60;;;;;;5106423;28;19924;-71
2022/03/15 14:18:35;;;;;;;;;;;13.70;78.20;;;;;;5105883;28;19977;-72
2022/03/15 14:21:02;;;;;;;;;;;13.40;78.60;;;;;;5104412;28;19924;-71
2022/03/15 14:23:29;;;;;;;;;;;13.40;81.40;;;;;;5110622;28;19934;-73
2022/03/15 14:26:00;;;;;;;;;;;13.30;81.40;;;;;;5103163;27;19924;-72
2022/03/15 14:28:28;;;;;;;;;;;13.30;81.00;;;;;;5104904;28;19976;-72
2022/03/15 14:31:00;;;;;;;;;;;13.30;80.20;;;;;;5095825;28;20341;-72